createdAt,value
2022-08-05T00:00:08.185Z,0.00
2022-08-05T00:01:20.717Z,0.00
2022-08-05T00:02:11.387Z,0.00
2022-08-05T00:03:07.117Z,0.00
2022-08-05T00:04:08.562Z,0.00
2022-08-05T00:05:07.096Z,0.00
2022-08-05T00:06:29.053Z,0.00
2022-08-05T00:07:26.949Z,0.00
2022-08-05T00:08:30.821Z,0.00
2022-08-05T00:09:13.131Z,0.00
2022-08-05T00:10:08.083Z,0.00
2022-08-05T00:11:07.626Z,0.00
2022-08-05T00:12:08.003Z,0.00
2022-08-05T00:13:07.982Z,0.00
2022-08-05T00:14:12.789Z,0.00
2022-08-05T00:15:56.162Z,0.00
2022-08-05T00:16:08.621Z,0.00
2022-08-05T00:17:18.642Z,0.00
2022-08-05T00:18:07.932Z,0.00
2022-08-05T00:19:06.903Z,0.00
2022-08-05T00:20:06.904Z,0.00
2022-08-05T00:21:08.361Z,0.00
2022-08-05T00:22:06.894Z,0.00
2022-08-05T00:23:12.783Z,0.00
2022-08-05T00:24:10.991Z,0.00
2022-08-05T00:25:08.388Z,0.00
2022-08-05T00:26:07.825Z,0.00
2022-08-05T00:27:10.492Z,0.00
2022-08-05T00:28:07.904Z,0.00
2022-08-05T00:29:06.776Z,0.00
2022-08-05T00:30:11.596Z,0.00
2022-08-05T00:31:07.829Z,0.00
2022-08-05T00:32:12.906Z,0.00
2022-08-05T00:33:07.735Z,0.00
2022-08-05T00:34:55.195Z,0.00
2022-08-05T00:35:07.859Z,0.00
2022-08-05T00:36:15.967Z,0.00
2022-08-05T00:37:10.632Z,0.00
2022-08-05T00:38:09.553Z,0.00
2022-08-05T00:39:06.701Z,0.00
2022-08-05T00:40:09.510Z,0.00
2022-08-05T00:41:06.634Z,0.00
2022-08-05T00:42:07.611Z,0.00
2022-08-05T00:43:07.494Z,0.00
2022-08-05T00:44:06.645Z,0.00
2022-08-05T00:45:08.567Z,0.00
2022-08-05T00:46:06.674Z,0.00
2022-08-05T00:47:06.544Z,0.00
2022-08-05T00:48:07.589Z,0.00
2022-08-05T00:49:06.529Z,0.00
2022-08-05T00:50:06.507Z,0.00
2022-08-05T00:51:49.844Z,0.00
2022-08-05T00:52:07.606Z,0.00
2022-08-05T00:53:09.869Z,0.00
2022-08-05T00:54:07.458Z,0.00
2022-08-05T00:55:06.443Z,0.00
2022-08-05T00:56:08.065Z,0.00
2022-08-05T00:57:06.421Z,0.00
2022-08-05T00:58:06.417Z,0.00
2022-08-05T00:59:06.955Z,0.00
2022-08-05T01:00:06.380Z,0.00
2022-08-05T01:01:09.004Z,0.00
2022-08-05T01:02:06.367Z,0.00
2022-08-05T01:03:07.953Z,0.00
2022-08-05T01:04:11.843Z,0.00
2022-08-05T01:05:09.986Z,0.00
2022-08-05T01:06:06.291Z,0.00
2022-08-05T01:07:07.320Z,0.00
2022-08-05T01:08:30.811Z,0.00
2022-08-05T01:09:07.263Z,0.00
2022-08-05T01:10:08.999Z,0.00
2022-08-05T01:11:06.233Z,0.00
2022-08-05T01:12:18.080Z,0.00
2022-08-05T01:13:13.380Z,0.00
2022-08-05T01:14:08.933Z,0.00
2022-08-05T01:15:06.202Z,0.00
2022-08-05T01:16:07.164Z,0.00
2022-08-05T01:17:06.154Z,0.00
2022-08-05T01:18:06.144Z,0.00
2022-08-05T01:19:06.134Z,0.00
2022-08-05T01:20:06.137Z,0.00
2022-08-05T01:21:06.133Z,0.00
2022-08-05T01:22:06.108Z,0.00
2022-08-05T01:23:14.283Z,0.00
2022-08-05T01:24:14.183Z,0.00
2022-08-05T01:25:07.119Z,0.00
2022-08-05T01:26:06.040Z,0.00
2022-08-05T01:27:19.200Z,0.00
2022-08-05T01:28:07.009Z,0.00
2022-08-05T01:29:06.000Z,0.00
2022-08-05T01:30:05.979Z,0.00
2022-08-05T01:31:07.079Z,0.00
2022-08-05T01:32:05.960Z,0.00
2022-08-05T01:33:08.219Z,0.00
2022-08-05T01:34:05.929Z,0.00
2022-08-05T01:35:10.732Z,0.00
2022-08-05T01:36:06.908Z,0.00
2022-08-05T01:37:07.001Z,0.00
2022-08-05T01:38:05.883Z,0.00
2022-08-05T01:39:05.927Z,0.00
2022-08-05T01:40:05.897Z,0.00
2022-08-05T01:41:05.843Z,0.00
2022-08-05T01:42:05.831Z,0.00
2022-08-05T01:43:05.836Z,0.00
2022-08-05T01:44:05.809Z,0.00
2022-08-05T01:45:08.079Z,0.00
2022-08-05T01:46:07.533Z,0.00
2022-08-05T01:47:06.872Z,0.00
2022-08-05T01:48:10.218Z,0.00
2022-08-05T01:49:23.073Z,0.00
2022-08-05T01:50:06.726Z,0.00
2022-08-05T01:51:12.352Z,0.00
2022-08-05T01:52:17.619Z,0.00
2022-08-05T01:53:06.686Z,0.00
2022-08-05T01:54:05.667Z,0.00
2022-08-05T01:55:05.695Z,0.00
2022-08-05T01:56:05.648Z,0.00
2022-08-05T01:58:10.982Z,0.00
2022-08-05T01:58:11.344Z,0.00
2022-08-05T01:59:06.610Z,0.00
2022-08-05T02:00:05.597Z,0.00
2022-08-05T02:01:06.610Z,0.00
2022-08-05T02:02:05.605Z,0.00
2022-08-05T02:03:06.576Z,0.00
2022-08-05T02:04:06.548Z,0.00
2022-08-05T02:05:05.530Z,0.00
2022-08-05T02:06:33.915Z,0.00
2022-08-05T02:07:06.622Z,0.00
2022-08-05T02:08:05.504Z,0.00
2022-08-05T02:09:05.814Z,0.00
2022-08-05T02:10:05.463Z,0.00
2022-08-05T02:11:05.452Z,0.00
2022-08-05T02:12:05.434Z,0.00
2022-08-05T02:13:05.461Z,0.00
2022-08-05T02:14:06.405Z,0.00
2022-08-05T02:15:05.394Z,0.00
2022-08-05T02:16:05.383Z,0.00
2022-08-05T02:17:05.366Z,0.00
2022-08-05T02:18:31.137Z,0.00
2022-08-05T02:19:06.966Z,0.00
2022-08-05T02:20:05.336Z,0.00
2022-08-05T02:21:05.722Z,0.00
2022-08-05T02:22:05.399Z,0.00
2022-08-05T02:23:05.296Z,0.00
2022-08-05T02:24:05.277Z,0.00
2022-08-05T02:25:05.288Z,0.00
2022-08-05T02:26:05.259Z,0.00
2022-08-05T02:27:10.021Z,0.00
2022-08-05T02:28:08.962Z,0.00
2022-08-05T02:29:05.219Z,0.00
2022-08-05T02:30:06.219Z,0.00
2022-08-05T02:31:05.191Z,0.00
2022-08-05T02:32:05.180Z,0.00
2022-08-05T02:33:05.170Z,0.00
2022-08-05T02:34:05.151Z,0.00
2022-08-05T02:35:13.628Z,0.00
2022-08-05T02:36:06.142Z,0.00
2022-08-05T02:37:05.115Z,0.00
2022-08-05T02:38:05.092Z,0.00
2022-08-05T02:39:05.140Z,0.00
2022-08-05T02:40:05.068Z,0.00
2022-08-05T02:41:14.531Z,0.00
2022-08-05T02:42:06.073Z,0.00
2022-08-05T02:43:05.035Z,0.00
2022-08-05T02:44:11.979Z,0.00
2022-08-05T02:45:06.004Z,0.00
2022-08-05T02:46:04.995Z,0.00
2022-08-05T02:47:04.975Z,0.00
2022-08-05T02:48:12.087Z,0.00
2022-08-05T02:49:05.957Z,0.00
2022-08-05T02:50:05.936Z,0.00
2022-08-05T02:51:04.928Z,0.00
2022-08-05T02:52:05.003Z,0.00
2022-08-05T02:53:04.907Z,0.00
2022-08-05T02:54:05.908Z,0.00
2022-08-05T02:55:05.506Z,0.00
2022-08-05T02:56:05.858Z,0.00
2022-08-05T02:57:05.141Z,0.00
2022-08-05T02:58:10.102Z,0.00
2022-08-05T02:59:05.830Z,0.00
2022-08-05T03:00:04.811Z,0.00
2022-08-05T03:01:04.878Z,0.00
2022-08-05T03:02:04.786Z,0.00
2022-08-05T03:03:10.320Z,0.00
2022-08-05T03:04:14.057Z,0.00
2022-08-05T03:05:05.782Z,0.00
2022-08-05T03:06:54.660Z,0.00
2022-08-05T03:07:05.724Z,0.00
2022-08-05T03:08:08.583Z,0.00
2022-08-05T03:09:04.697Z,0.00
2022-08-05T03:10:04.683Z,0.00
2022-08-05T03:11:53.780Z,0.00
2022-08-05T03:12:05.681Z,0.00
2022-08-05T03:13:51.547Z,0.00
2022-08-05T03:14:45.863Z,0.00
2022-08-05T03:15:36.305Z,0.00
2022-08-05T03:16:35.850Z,0.00
2022-08-05T03:17:41.809Z,0.00
2022-08-05T03:18:36.263Z,0.00
2022-08-05T03:19:36.368Z,0.00
2022-08-05T03:20:35.235Z,0.00
2022-08-05T03:21:44.212Z,0.00
2022-08-05T03:22:36.227Z,1.00
2022-08-05T03:23:35.227Z,1.00
2022-08-05T03:24:35.178Z,1.00
2022-08-05T03:26:05.063Z,1.00
2022-08-05T03:26:36.148Z,1.00
2022-08-05T03:27:59.074Z,0.00
2022-08-05T03:28:36.159Z,0.00
2022-08-05T03:29:45.443Z,0.00
2022-08-05T03:30:36.100Z,0.00
2022-08-05T03:31:56.932Z,0.00
2022-08-05T03:32:36.078Z,0.00
2022-08-05T03:33:52.828Z,2.00
2022-08-05T03:34:36.089Z,2.00
2022-08-05T03:35:41.225Z,2.00
2022-08-05T03:36:36.024Z,2.00
2022-08-05T03:37:41.015Z,4.00
2022-08-05T03:38:37.469Z,0.00
2022-08-05T03:39:47.390Z,4.00
2022-08-05T03:40:36.105Z,7.00
2022-08-05T03:41:45.426Z,2.00
2022-08-05T03:42:41.481Z,6.00
2022-08-05T03:44:08.402Z,5.00
2022-08-05T03:44:35.915Z,9.00
2022-08-05T03:45:58.056Z,13.00
2022-08-05T03:46:35.925Z,15.00
2022-08-05T03:47:35.565Z,22.00
2022-08-05T03:48:36.756Z,18.00
2022-08-05T03:49:51.585Z,37.00
2022-08-05T03:50:35.853Z,44.00
2022-08-05T03:52:37.212Z,53.00
2022-08-05T03:54:59.245Z,64.00
2022-08-05T03:55:52.640Z,71.00
2022-08-05T03:56:01.835Z,80.00
2022-08-05T03:56:09.403Z,85.00
2022-08-05T03:56:35.907Z,89.00
2022-08-05T03:57:41.940Z,92.00
2022-08-05T03:58:35.766Z,97.00
2022-08-05T03:59:47.262Z,99.00
2022-08-05T04:00:35.710Z,100.00
2022-08-05T04:01:34.796Z,105.00
2022-08-05T04:02:39.008Z,108.00
2022-08-05T04:03:35.682Z,107.00
2022-08-05T04:04:34.693Z,113.00
2022-08-05T04:05:34.893Z,118.00
2022-08-05T04:06:34.631Z,119.00
2022-08-05T04:07:34.624Z,136.00
2022-08-05T04:08:36.693Z,146.00
2022-08-05T04:09:36.666Z,167.00
2022-08-05T04:10:37.903Z,169.00
2022-08-05T04:11:42.565Z,174.00
2022-08-05T04:13:10.395Z,0.00
2022-08-05T04:14:10.365Z,129.00
2022-08-05T04:15:15.609Z,130.00
2022-08-05T04:16:11.465Z,121.00
2022-08-05T04:17:11.403Z,135.00
2022-08-05T04:18:12.735Z,130.00
2022-08-05T04:19:11.316Z,114.00
2022-08-05T04:20:10.296Z,107.00
2022-08-05T04:21:11.118Z,107.00
2022-08-05T04:22:12.274Z,109.00
2022-08-05T04:23:12.463Z,116.00
2022-08-05T04:24:18.774Z,127.00
2022-08-05T04:25:11.229Z,123.00
2022-08-05T04:26:10.215Z,136.00
2022-08-05T04:27:10.223Z,132.00
2022-08-05T04:28:11.260Z,124.00
2022-08-05T04:29:10.180Z,124.00
2022-08-05T04:30:10.165Z,128.00
2022-08-05T04:31:10.643Z,137.00
2022-08-05T04:32:10.143Z,119.00
2022-08-05T04:33:10.132Z,113.00
2022-08-05T04:34:31.756Z,118.00
2022-08-05T04:35:17.600Z,114.00
2022-08-05T04:36:38.521Z,114.00
2022-08-05T04:37:11.073Z,125.00
2022-08-05T04:38:10.062Z,128.00
2022-08-05T04:39:11.119Z,130.00
2022-08-05T04:40:10.033Z,130.00
2022-08-05T04:41:10.210Z,135.00
2022-08-05T04:42:10.006Z,135.00
2022-08-05T04:43:10.965Z,152.00
2022-08-05T04:44:10.987Z,151.00
2022-08-05T04:45:10.021Z,171.00
2022-08-05T04:46:09.955Z,186.00
2022-08-05T04:47:10.500Z,205.00
2022-08-05T04:48:10.339Z,230.00
2022-08-05T04:49:14.852Z,244.00
2022-08-05T04:50:11.308Z,248.00
2022-08-05T04:51:11.460Z,273.00
2022-08-05T04:52:09.891Z,305.00
2022-08-05T04:53:09.876Z,326.00
2022-08-05T04:54:09.859Z,381.00
2022-08-05T04:55:14.612Z,441.00
2022-08-05T04:56:15.367Z,495.00
2022-08-05T04:57:10.842Z,547.00
2022-08-05T04:58:12.333Z,600.00
2022-08-05T04:59:22.343Z,625.00
2022-08-05T05:00:10.779Z,600.00
2022-08-05T05:01:09.849Z,538.00
2022-08-05T05:02:37.370Z,468.00
2022-08-05T05:03:10.810Z,426.00
2022-08-05T05:04:09.732Z,391.00
2022-08-05T05:05:26.451Z,366.00
2022-08-05T05:06:38.724Z,351.00
2022-08-05T05:07:10.723Z,335.00
2022-08-05T05:08:14.373Z,351.00
2022-08-05T05:09:10.664Z,377.00
2022-08-05T05:10:09.654Z,418.00
2022-08-05T05:11:09.643Z,468.00
2022-08-05T05:12:09.625Z,488.00
2022-08-05T05:13:09.644Z,492.00
2022-08-05T05:14:09.605Z,496.00
2022-08-05T05:15:11.051Z,489.00
2022-08-05T05:16:09.585Z,484.00
2022-08-05T05:17:09.589Z,496.00
2022-08-05T05:18:09.557Z,530.00
2022-08-05T05:19:19.243Z,593.00
2022-08-05T05:20:10.539Z,688.00
2022-08-05T05:21:09.521Z,768.00
2022-08-05T05:22:24.101Z,818.00
2022-08-05T05:23:19.691Z,841.00
2022-08-05T05:24:10.518Z,806.00
2022-08-05T05:25:16.123Z,751.00
2022-08-05T05:26:10.452Z,691.00
2022-08-05T05:27:09.447Z,669.00
2022-08-05T05:28:09.442Z,699.00
2022-08-05T05:29:14.233Z,706.00
2022-08-05T05:30:15.275Z,689.00
2022-08-05T05:31:10.392Z,653.00
2022-08-05T05:32:12.682Z,607.00
2022-08-05T05:33:17.199Z,593.00
2022-08-05T05:34:10.355Z,586.00
2022-08-05T05:35:09.332Z,593.00
2022-08-05T05:36:09.344Z,602.00
2022-08-05T05:37:09.312Z,627.00
2022-08-05T05:38:13.136Z,657.00
2022-08-05T05:39:10.832Z,688.00
2022-08-05T05:40:09.282Z,724.00
2022-08-05T05:41:09.289Z,755.00
2022-08-05T05:42:09.355Z,813.00
2022-08-05T05:43:09.246Z,852.00
2022-08-05T05:44:35.608Z,902.00
2022-08-05T05:45:10.215Z,951.00
2022-08-05T05:46:15.982Z,1001.00
2022-08-05T05:47:13.456Z,1028.00
2022-08-05T05:48:10.169Z,1051.00
2022-08-05T05:49:22.548Z,1068.00
2022-08-05T05:50:10.157Z,1081.00
2022-08-05T05:51:15.263Z,1080.00
2022-08-05T05:52:13.273Z,1060.00
2022-08-05T05:53:22.232Z,1060.00
2022-08-05T05:54:11.657Z,1079.00
2022-08-05T05:55:13.272Z,1125.00
2022-08-05T05:56:09.071Z,1175.00
2022-08-05T05:57:13.453Z,1225.00
2022-08-05T05:58:10.050Z,1284.00
2022-08-05T05:59:09.061Z,1351.00
2022-08-05T06:00:09.012Z,1431.00
2022-08-05T06:01:13.411Z,1498.00
2022-08-05T06:02:10.000Z,1544.00
2022-08-05T06:03:39.623Z,1534.00
2022-08-05T06:04:11.922Z,1426.00
2022-08-05T06:05:10.494Z,1259.00
2022-08-05T06:06:09.943Z,1110.00
2022-08-05T06:07:08.935Z,1019.00
2022-08-05T06:08:08.914Z,968.00
2022-08-05T06:09:08.905Z,953.00
2022-08-05T06:10:10.455Z,948.00
2022-08-05T06:11:08.886Z,929.00
2022-08-05T06:12:09.694Z,926.00
2022-08-05T06:13:08.856Z,886.00
2022-08-05T06:14:08.837Z,864.00
2022-08-05T06:15:11.408Z,848.00
2022-08-05T06:16:28.978Z,815.00
2022-08-05T06:17:24.368Z,811.00
2022-08-05T06:18:09.797Z,841.00
2022-08-05T06:19:08.788Z,921.00
2022-08-05T06:20:08.769Z,1027.00
2022-08-05T06:21:18.657Z,1186.00
2022-08-05T06:22:09.773Z,1327.00
2022-08-05T06:23:08.733Z,1409.00
2022-08-05T06:24:11.800Z,1401.00
2022-08-05T06:25:24.894Z,1322.00
2022-08-05T06:26:13.832Z,1200.00
2022-08-05T06:28:09.531Z,1127.00
2022-08-05T06:28:12.053Z,1069.00
2022-08-05T06:29:46.828Z,1051.00
2022-08-05T06:30:17.793Z,1047.00
2022-08-05T06:31:10.868Z,1035.00
2022-08-05T06:32:25.585Z,1052.00
2022-08-05T06:33:09.722Z,1128.00
2022-08-05T06:34:09.126Z,1226.00
2022-08-05T06:35:15.499Z,1371.00
2022-08-05T06:36:10.253Z,1497.00
2022-08-05T06:37:09.505Z,1593.00
2022-08-05T06:38:11.890Z,1656.00
2022-08-05T06:39:08.562Z,1696.00
2022-08-05T06:40:08.546Z,1664.00
2022-08-05T06:41:08.499Z,1575.00
2022-08-05T06:42:08.489Z,1480.00
2022-08-05T06:43:57.478Z,1435.00
2022-08-05T06:44:09.468Z,1444.00
2022-08-05T06:45:09.013Z,1486.00
2022-08-05T06:46:08.487Z,1546.00
2022-08-05T06:47:10.384Z,1598.00
2022-08-05T06:48:47.116Z,1632.00
2022-08-05T06:49:09.402Z,1654.00
2022-08-05T06:50:08.390Z,1687.00
2022-08-05T06:51:11.999Z,1787.00
2022-08-05T06:52:36.424Z,1907.00
2022-08-05T06:53:11.752Z,1982.00
2022-08-05T06:54:09.341Z,1987.00
2022-08-05T06:55:08.321Z,1924.00
2022-08-05T06:56:25.940Z,1867.00
2022-08-05T06:57:57.900Z,1798.00
2022-08-05T06:58:20.015Z,1710.00
2022-08-05T06:59:11.955Z,1652.00
2022-08-05T07:00:09.686Z,1635.00
2022-08-05T07:01:08.300Z,1652.00
2022-08-05T07:02:09.239Z,1677.00
2022-08-05T07:03:09.780Z,1701.00
2022-08-05T07:04:08.205Z,1649.00
2022-08-05T07:05:14.487Z,1583.00
2022-08-05T07:06:14.189Z,1558.00
2022-08-05T07:07:09.175Z,1546.00
2022-08-05T07:08:10.013Z,1573.00
2022-08-05T07:09:08.176Z,1591.00
2022-08-05T07:10:08.155Z,1654.00
2022-08-05T07:11:08.127Z,1736.00
2022-08-05T07:12:09.108Z,1844.00
2022-08-05T07:13:08.098Z,1917.00
2022-08-05T07:14:08.078Z,1939.00
2022-08-05T07:15:09.109Z,1977.00
2022-08-05T07:16:08.058Z,1982.00
2022-08-05T07:17:58.200Z,1892.00
2022-08-05T07:18:11.556Z,1737.00
2022-08-05T07:19:09.022Z,1585.00
2022-08-05T07:20:32.050Z,1470.00
2022-08-05T07:21:09.022Z,1424.00
2022-08-05T07:22:08.097Z,1426.00
2022-08-05T07:23:07.961Z,1463.00
2022-08-05T07:24:09.198Z,1542.00
2022-08-05T07:25:21.759Z,1672.00
2022-08-05T07:26:08.974Z,1823.00
2022-08-05T07:27:09.051Z,2013.00
2022-08-05T07:28:11.262Z,2212.00
2022-08-05T07:29:07.892Z,2346.00
2022-08-05T07:30:27.256Z,2405.00
2022-08-05T07:31:08.874Z,2394.00
2022-08-05T07:32:07.907Z,2397.00
2022-08-05T07:33:09.567Z,2509.00
2022-08-05T07:34:08.367Z,2814.00
2022-08-05T07:36:04.910Z,3376.00
2022-08-05T07:36:20.111Z,4119.00
2022-08-05T07:37:09.111Z,4635.00
2022-08-05T07:38:07.807Z,4683.00
2022-08-05T07:39:07.842Z,4374.00
2022-08-05T07:40:31.743Z,3910.00
2022-08-05T07:42:08.442Z,3513.00
2022-08-05T07:42:14.077Z,3208.00
2022-08-05T07:43:20.449Z,3003.00
2022-08-05T07:44:18.783Z,2877.00
2022-08-05T07:45:09.340Z,2891.00
2022-08-05T07:46:24.438Z,2959.00
2022-08-05T07:47:10.062Z,2935.00
2022-08-05T07:48:07.651Z,2782.00
2022-08-05T07:49:07.992Z,2647.00
2022-08-05T07:50:07.658Z,2562.00
2022-08-05T07:51:22.924Z,2505.00
2022-08-05T07:52:08.601Z,2398.00
2022-08-05T07:53:07.581Z,2368.00
2022-08-05T07:54:08.480Z,2526.00
2022-08-05T07:55:15.926Z,2725.00
2022-08-05T07:57:02.785Z,2862.00
2022-08-05T07:57:17.834Z,3005.00
2022-08-05T07:58:09.077Z,3222.00
2022-08-05T07:59:08.752Z,3601.00
2022-08-05T08:00:11.584Z,4084.00
2022-08-05T08:01:12.403Z,4318.00
2022-08-05T08:02:15.484Z,4154.00
2022-08-05T08:03:14.103Z,3715.00
2022-08-05T08:04:08.445Z,3239.00
2022-08-05T08:05:07.426Z,2870.00
2022-08-05T08:06:07.424Z,2696.00
2022-08-05T08:07:07.629Z,2690.00
2022-08-05T08:08:07.416Z,2827.00
2022-08-05T08:09:08.389Z,3053.00
2022-08-05T08:10:07.369Z,3305.00
2022-08-05T08:11:08.991Z,3434.00
2022-08-05T08:12:27.233Z,3306.00
2022-08-05T08:13:08.440Z,3080.00
2022-08-05T08:14:07.319Z,2932.00
2022-08-05T08:15:14.018Z,2837.00
2022-08-05T08:16:50.503Z,2880.00
2022-08-05T08:17:08.282Z,3149.00
2022-08-05T08:18:13.938Z,3709.00
2022-08-05T08:19:08.371Z,4246.00
2022-08-05T08:20:44.542Z,4572.00
2022-08-05T08:21:09.441Z,4678.00
2022-08-05T08:22:09.086Z,4687.00
2022-08-05T08:23:07.201Z,4567.00
2022-08-05T08:24:13.554Z,4375.00
2022-08-05T08:25:16.238Z,4225.00
2022-08-05T08:26:08.194Z,4121.00
2022-08-05T08:27:07.340Z,3898.00
2022-08-05T08:28:07.157Z,3652.00
2022-08-05T08:29:21.597Z,3569.00
2022-08-05T08:30:29.953Z,3612.00
2022-08-05T08:31:08.144Z,3960.00
2022-08-05T08:32:07.105Z,4186.00
2022-08-05T08:33:08.358Z,4186.00
2022-08-05T08:34:07.057Z,3777.00
2022-08-05T08:35:07.070Z,3224.00
2022-08-05T08:36:38.495Z,3226.00
2022-08-05T08:37:08.040Z,3463.00
2022-08-05T08:38:07.048Z,3735.00
2022-08-05T08:39:07.026Z,3850.00
2022-08-05T08:40:08.094Z,3891.00
2022-08-05T08:41:06.972Z,3915.00
2022-08-05T08:42:15.173Z,4130.00
2022-08-05T08:44:56.398Z,4441.00
2022-08-05T08:45:18.731Z,4302.00
2022-08-05T08:45:22.491Z,3819.00
2022-08-05T08:46:10.027Z,3479.00
2022-08-05T08:47:21.751Z,3053.00
2022-08-05T08:48:22.685Z,2719.00
2022-08-05T08:50:13.042Z,2657.00
2022-08-05T08:50:31.825Z,2762.00
2022-08-05T08:51:54.475Z,2999.00
2022-08-05T08:52:13.758Z,3240.00
2022-08-05T08:53:12.270Z,3408.00
2022-08-05T08:54:06.824Z,3312.00
2022-08-05T08:55:13.145Z,3311.00
2022-08-05T08:56:07.802Z,3555.00
2022-08-05T08:57:11.607Z,3669.00
2022-08-05T08:58:08.659Z,3801.00
2022-08-05T08:59:14.662Z,3989.00
2022-08-05T09:00:07.747Z,4337.00
2022-08-05T09:01:06.763Z,4736.00
2022-08-05T09:02:08.553Z,4922.00
2022-08-05T09:03:06.756Z,5298.00
2022-08-05T09:04:06.677Z,5299.00
2022-08-05T09:05:17.606Z,5228.00
2022-08-05T09:06:11.570Z,5177.00
2022-08-05T09:07:10.794Z,5175.00
2022-08-05T09:08:07.634Z,5149.00
2022-08-05T09:09:06.609Z,5187.00
2022-08-05T09:10:06.660Z,5446.00
2022-08-05T09:11:07.547Z,5735.00
2022-08-05T09:12:20.116Z,6243.00
2022-08-05T09:13:08.509Z,6921.00
2022-08-05T09:14:54.487Z,7534.00
2022-08-05T09:15:07.608Z,8248.00
2022-08-05T09:16:06.520Z,8987.00
2022-08-05T09:17:09.590Z,9672.00
2022-08-05T09:18:07.501Z,10262.00
2022-08-05T09:19:06.747Z,10755.00
2022-08-05T09:20:06.493Z,11061.00
2022-08-05T09:21:11.636Z,10866.00
2022-08-05T09:22:30.915Z,10367.00
2022-08-05T09:23:07.808Z,10099.00
2022-08-05T09:24:06.826Z,10230.00
2022-08-05T09:25:13.673Z,10547.00
2022-08-05T09:26:09.164Z,10881.00
2022-08-05T09:27:06.376Z,11027.00
2022-08-05T09:28:06.542Z,11059.00
2022-08-05T09:29:06.379Z,11120.00
2022-08-05T09:30:06.764Z,11302.00
2022-08-05T09:31:43.748Z,11630.00
2022-08-05T09:32:41.296Z,12005.00
2022-08-05T09:33:07.317Z,12267.00
2022-08-05T09:34:06.301Z,12350.00
2022-08-05T09:35:06.309Z,12281.00
2022-08-05T09:36:16.302Z,11937.00
2022-08-05T09:37:07.253Z,11418.00
2022-08-05T09:38:16.935Z,11023.00
2022-08-05T09:39:16.376Z,10898.00
2022-08-05T09:40:07.281Z,11100.00
2022-08-05T09:41:06.212Z,11617.00
2022-08-05T09:42:07.818Z,12229.00
2022-08-05T09:43:06.171Z,12735.00
2022-08-05T09:44:06.168Z,13193.00
2022-08-05T09:45:17.507Z,13568.00
2022-08-05T09:46:08.726Z,13870.00
2022-08-05T09:47:10.445Z,14157.00
2022-08-05T09:48:07.117Z,14317.00
2022-08-05T09:49:07.930Z,14686.00
2022-08-05T09:50:07.111Z,15154.00
2022-08-05T09:51:15.112Z,15608.00
2022-08-05T09:52:07.196Z,15918.00
2022-08-05T09:53:06.056Z,16078.00
2022-08-05T09:54:06.045Z,16254.00
2022-08-05T09:55:06.487Z,16438.00
2022-08-05T09:56:13.185Z,16477.00
2022-08-05T09:57:23.211Z,16228.00
2022-08-05T09:58:07.018Z,16063.00
2022-08-05T09:59:05.975Z,15719.00
2022-08-05T10:00:08.361Z,15346.00
2022-08-05T10:01:14.995Z,15177.00
2022-08-05T10:02:06.939Z,15076.00
2022-08-05T10:03:05.953Z,14894.00
2022-08-05T10:04:10.581Z,14855.00
2022-08-05T10:05:07.944Z,14965.00
2022-08-05T10:06:07.681Z,15016.00
2022-08-05T10:07:19.865Z,14758.00
2022-08-05T10:08:34.677Z,14323.00
2022-08-05T10:09:06.863Z,13812.00
2022-08-05T10:10:15.244Z,13227.00
2022-08-05T10:11:06.823Z,12668.00
2022-08-05T10:12:07.596Z,12262.00
2022-08-05T10:13:09.722Z,12192.00
2022-08-05T10:14:05.795Z,12568.00
2022-08-05T10:15:06.784Z,12992.00
2022-08-05T10:16:05.772Z,13272.00
2022-08-05T10:17:05.758Z,13661.00
2022-08-05T10:18:06.755Z,13713.00
2022-08-05T10:19:09.119Z,13524.00
2022-08-05T10:20:09.985Z,13566.00
2022-08-05T10:21:11.748Z,13788.00
2022-08-05T10:22:06.699Z,13747.00
2022-08-05T10:23:05.677Z,13600.00
2022-08-05T10:24:10.823Z,13527.00
2022-08-05T10:25:05.651Z,13548.00
2022-08-05T10:26:05.639Z,13326.00
2022-08-05T10:27:05.705Z,13267.00
2022-08-05T10:28:12.960Z,13590.00
2022-08-05T10:29:06.664Z,14388.00
2022-08-05T10:30:06.839Z,15567.00
2022-08-05T10:32:47.741Z,16643.00
2022-08-05T10:32:55.162Z,17071.00
2022-08-05T10:33:09.389Z,17368.00
2022-08-05T10:34:07.105Z,17736.00
2022-08-05T10:35:05.524Z,18008.00
2022-08-05T10:36:05.544Z,18716.00
2022-08-05T10:37:05.539Z,19407.00
2022-08-05T10:38:05.543Z,19358.00
2022-08-05T10:39:10.299Z,18770.00
2022-08-05T10:40:17.690Z,18502.00
2022-08-05T10:41:06.544Z,18510.00
2022-08-05T10:42:05.427Z,18096.00
2022-08-05T10:43:05.426Z,17710.00
2022-08-05T10:44:05.704Z,17132.00
2022-08-05T10:45:20.913Z,17090.00
2022-08-05T10:46:06.986Z,16913.00
2022-08-05T10:47:05.374Z,16283.00
2022-08-05T10:48:31.061Z,15721.00
2022-08-05T10:49:10.107Z,16026.00
2022-08-05T10:50:32.820Z,16649.00
2022-08-05T10:51:06.324Z,17580.00
2022-08-05T10:52:10.284Z,18091.00
2022-08-05T10:53:05.302Z,18062.00
2022-08-05T10:54:23.013Z,17699.00
2022-08-05T10:55:06.349Z,17001.00
2022-08-05T10:56:14.887Z,16665.00
2022-08-05T10:57:06.255Z,16121.00
2022-08-05T10:58:05.234Z,15871.00
2022-08-05T10:59:11.427Z,16476.00
2022-08-05T11:00:09.867Z,17277.00
2022-08-05T11:01:06.316Z,17976.00
2022-08-05T11:02:05.635Z,18503.00
2022-08-05T11:03:25.082Z,18378.00
2022-08-05T11:04:06.241Z,17722.00
2022-08-05T11:05:05.228Z,16691.00
2022-08-05T11:06:05.160Z,15769.00
2022-08-05T11:07:05.239Z,15316.00
2022-08-05T11:08:27.648Z,15542.00
2022-08-05T11:09:06.110Z,16198.00
2022-08-05T11:10:09.864Z,16634.00
2022-08-05T11:11:14.567Z,16927.00
2022-08-05T11:12:06.089Z,17071.00
2022-08-05T11:13:05.052Z,17597.00
2022-08-05T11:14:05.081Z,17763.00
2022-08-05T11:15:19.829Z,17999.00
2022-08-05T11:16:06.052Z,18048.00
2022-08-05T11:17:56.852Z,16934.00
2022-08-05T11:18:06.079Z,15894.00
2022-08-05T11:20:10.143Z,14129.00
2022-08-05T11:20:10.335Z,14886.00
2022-08-05T11:21:11.753Z,14039.00
2022-08-05T11:22:05.947Z,14644.00
2022-08-05T11:23:05.972Z,15564.00
2022-08-05T11:24:14.731Z,16497.00
2022-08-05T11:25:16.830Z,18699.00
2022-08-05T11:26:08.865Z,17764.00
2022-08-05T11:27:04.875Z,17121.00
2022-08-05T11:28:04.857Z,15783.00
2022-08-05T11:29:12.291Z,14396.00
2022-08-05T11:30:05.848Z,14328.00
2022-08-05T11:31:06.449Z,14264.00
2022-08-05T11:32:04.801Z,14505.00
2022-08-05T11:33:04.814Z,14943.00
2022-08-05T11:34:04.774Z,15581.00
2022-08-05T11:35:04.782Z,14585.00
2022-08-05T11:36:08.647Z,14346.00
2022-08-05T11:37:06.119Z,14204.00
2022-08-05T11:38:31.029Z,15239.00
2022-08-05T11:39:05.826Z,14403.00
2022-08-05T11:40:04.771Z,14323.00
2022-08-05T11:41:34.500Z,14803.00
2022-08-05T11:42:05.735Z,14419.00
2022-08-05T11:43:04.677Z,13975.00
2022-08-05T11:44:08.140Z,14313.00
2022-08-05T11:45:05.405Z,14751.00
2022-08-05T11:46:15.464Z,15411.00
2022-08-05T11:47:10.481Z,16383.00
2022-08-05T11:48:05.619Z,16965.00
2022-08-05T11:49:04.599Z,17660.00
2022-08-05T11:50:04.579Z,19987.00
2022-08-05T11:51:04.569Z,19766.00
2022-08-05T11:52:11.202Z,17217.00
2022-08-05T11:53:06.434Z,14732.00
2022-08-05T11:54:04.632Z,12539.00
2022-08-05T11:55:07.343Z,9992.00
2022-08-05T11:56:05.511Z,7909.00
2022-08-05T11:57:08.497Z,6175.00
2022-08-05T11:58:09.469Z,4725.00
2022-08-05T11:59:05.503Z,3687.00
2022-08-05T12:00:06.461Z,3166.00
2022-08-05T12:01:04.522Z,3075.00
2022-08-05T12:02:04.435Z,3093.00
2022-08-05T12:03:04.478Z,3092.00
2022-08-05T12:04:04.467Z,3107.00
2022-08-05T12:05:07.158Z,3686.00
2022-08-05T12:06:05.763Z,4803.00
2022-08-05T12:07:04.381Z,6223.00
2022-08-05T12:08:10.062Z,8228.00
2022-08-05T12:09:05.348Z,10790.00
2022-08-05T12:10:09.637Z,12500.00
2022-08-05T12:11:06.470Z,13588.00
2022-08-05T12:12:04.309Z,13499.00
2022-08-05T12:13:04.291Z,13488.00
2022-08-05T12:14:05.280Z,12423.00
2022-08-05T12:15:04.298Z,11535.00
2022-08-05T12:16:04.261Z,10773.00
2022-08-05T12:17:05.289Z,10278.00
2022-08-05T12:18:10.704Z,10202.00
2022-08-05T12:19:08.413Z,10395.00
2022-08-05T12:20:26.353Z,10651.00
2022-08-05T12:21:05.230Z,10963.00
2022-08-05T12:22:04.174Z,11331.00
2022-08-05T12:23:05.228Z,11657.00
2022-08-05T12:24:05.025Z,11987.00
2022-08-05T12:25:04.148Z,12226.00
2022-08-05T12:26:04.126Z,12529.00